createdAt,value
2022-10-06T00:00:08.108Z,97844.31
2022-10-06T00:03:11.099Z,97849.38
2022-10-06T00:06:16.361Z,97838.00
2022-10-06T00:09:19.290Z,97845.34
2022-10-06T00:12:22.256Z,97843.28
2022-10-06T00:15:29.158Z,97832.84
2022-10-06T00:18:32.311Z,97835.91
2022-10-06T00:21:35.422Z,97836.25
2022-10-06T00:24:38.351Z,97835.25
2022-10-06T00:27:43.249Z,97842.38
2022-10-06T00:30:48.274Z,97834.22
2022-10-06T00:33:51.624Z,97830.72
2022-10-06T00:36:54.530Z,97837.25
2022-10-06T00:39:57.581Z,97838.84
2022-10-06T00:43:02.432Z,97840.25
2022-10-06T00:46:08.448Z,97837.38
2022-10-06T00:49:17.637Z,97845.13
2022-10-06T00:52:24.230Z,97839.34
2022-10-06T00:55:27.157Z,97854.88
2022-10-06T00:58:30.466Z,97848.34
2022-10-06T01:01:35.930Z,97867.47
2022-10-06T01:04:42.423Z,97865.00
2022-10-06T01:07:45.599Z,97867.81
2022-10-06T01:10:48.598Z,97855.97
2022-10-06T01:13:51.724Z,97864.69
2022-10-06T01:17:00.684Z,97867.25
2022-10-06T01:20:08.965Z,97866.88
2022-10-06T01:23:14.256Z,97865.38
2022-10-06T01:26:19.625Z,97866.88
2022-10-06T01:29:23.083Z,97882.69
2022-10-06T01:32:28.248Z,97889.22
2022-10-06T01:35:31.199Z,97898.97
2022-10-06T01:38:36.589Z,97906.53
2022-10-06T01:41:40.550Z,97908.16
2022-10-06T01:44:43.891Z,97912.22
2022-10-06T01:47:47.788Z,97917.31
2022-10-06T01:50:51.150Z,97914.88
2022-10-06T01:53:55.518Z,97922.56
2022-10-06T01:56:58.519Z,97927.00
2022-10-06T02:00:02.844Z,97935.59
2022-10-06T02:03:15.642Z,97936.31
2022-10-06T02:06:18.734Z,97943.00
2022-10-06T02:09:23.678Z,97954.91
2022-10-06T02:12:26.760Z,97965.56
2022-10-06T02:15:33.182Z,97962.72
2022-10-06T02:18:36.640Z,97966.44
2022-10-06T02:21:39.682Z,97963.47
2022-10-06T02:24:43.998Z,97959.47
2022-10-06T02:27:47.589Z,97967.97
2022-10-06T02:30:50.611Z,97976.66
2022-10-06T02:33:53.751Z,97991.28
2022-10-06T02:36:57.814Z,97992.69
2022-10-06T02:40:02.550Z,97999.22
2022-10-06T02:43:07.478Z,98000.88
2022-10-06T02:46:13.160Z,98001.78
2022-10-06T02:49:22.076Z,98000.88
2022-10-06T02:52:25.745Z,98001.53
2022-10-06T02:55:31.273Z,98001.00
2022-10-06T02:58:36.082Z,97999.75
2022-10-06T03:01:44.273Z,98021.63
2022-10-06T03:04:51.959Z,98033.31
2022-10-06T03:07:54.945Z,98050.13
2022-10-06T03:11:04.044Z,98065.63
2022-10-06T03:14:07.942Z,98071.22
2022-10-06T03:17:11.094Z,98062.97
2022-10-06T03:20:20.612Z,98080.31
2022-10-06T03:23:23.747Z,98089.44
2022-10-06T03:26:30.178Z,98086.25
2022-10-06T03:29:35.110Z,98093.66
2022-10-06T03:32:39.239Z,98101.34
2022-10-06T03:35:44.037Z,98112.03
2022-10-06T03:38:47.417Z,98124.53
2022-10-06T03:41:52.000Z,98116.78
2022-10-06T03:44:55.303Z,98128.28
2022-10-06T03:47:59.264Z,98128.91
2022-10-06T03:51:05.291Z,98147.00
2022-10-06T03:54:10.788Z,98156.56
2022-10-06T03:57:16.505Z,98157.50
2022-10-06T04:00:19.711Z,98163.13
2022-10-06T04:03:22.713Z,98160.88
2022-10-06T04:06:26.874Z,98167.63
2022-10-06T04:09:30.835Z,98175.50
2022-10-06T04:12:36.297Z,98187.50
2022-10-06T04:15:39.907Z,98196.66
2022-10-06T04:18:44.261Z,98203.22
2022-10-06T04:21:48.845Z,98212.56
2022-10-06T04:24:57.579Z,98219.13
2022-10-06T04:28:02.248Z,98216.41
2022-10-06T04:31:12.844Z,98224.16
2022-10-06T04:34:16.061Z,98220.41
2022-10-06T04:37:21.049Z,98223.25
2022-10-06T04:40:25.031Z,98243.25
2022-10-06T04:43:29.658Z,98245.78
2022-10-06T04:46:49.404Z,98249.09
2022-10-06T04:49:54.134Z,98257.22
2022-10-06T04:52:57.235Z,98256.84
2022-10-06T04:56:01.837Z,98256.69
2022-10-06T04:59:08.411Z,98265.81
2022-10-06T05:02:14.821Z,98271.19
2022-10-06T05:05:19.106Z,98277.31
2022-10-06T05:08:23.069Z,98292.38
2022-10-06T05:11:27.053Z,98293.22
2022-10-06T05:14:33.655Z,98287.59
2022-10-06T05:17:36.790Z,98275.63
2022-10-06T05:20:39.812Z,98265.13
2022-10-06T05:23:44.369Z,98267.66
2022-10-06T05:26:50.023Z,98267.13
2022-10-06T05:29:54.650Z,98272.34
2022-10-06T05:32:57.919Z,98275.63
2022-10-06T05:36:02.764Z,98280.19
2022-10-06T05:39:06.598Z,98288.16
2022-10-06T05:42:26.193Z,98289.41
2022-10-06T05:45:33.138Z,98298.75
2022-10-06T05:48:36.594Z,98299.03
2022-10-06T05:51:40.154Z,98304.59
2022-10-06T05:54:47.505Z,98305.63
2022-10-06T05:57:50.459Z,98311.38
2022-10-06T06:00:54.754Z,98310.38
2022-10-06T06:04:00.343Z,98317.47
2022-10-06T06:07:04.529Z,98325.09
2022-10-06T06:10:09.455Z,98324.72
2022-10-06T06:13:12.341Z,98338.78
2022-10-06T06:16:26.076Z,98340.09
2022-10-06T06:19:29.649Z,98354.34
2022-10-06T06:22:32.509Z,98358.44
2022-10-06T06:25:35.417Z,98361.66
2022-10-06T06:28:40.369Z,98369.31
2022-10-06T06:31:46.296Z,98375.16
2022-10-06T06:34:49.230Z,98395.84
2022-10-06T06:37:52.300Z,98434.84
2022-10-06T06:40:55.455Z,98462.53
2022-10-06T06:44:00.147Z,98502.50
2022-10-06T06:47:12.714Z,98524.00
2022-10-06T06:50:17.327Z,98556.38
2022-10-06T06:53:20.321Z,98569.75
2022-10-06T06:56:23.583Z,98581.81
2022-10-06T06:59:26.603Z,98595.66
2022-10-06T07:02:33.632Z,98609.19
2022-10-06T07:05:36.950Z,98635.63
2022-10-06T07:08:43.092Z,98661.00
2022-10-06T07:11:46.247Z,98674.69
2022-10-06T07:15:11.547Z,98679.16
2022-10-06T07:18:36.419Z,98668.56
2022-10-06T07:21:57.923Z,98694.31
2022-10-06T07:25:08.691Z,98671.81
2022-10-06T07:28:17.207Z,98662.41
2022-10-06T07:31:20.437Z,98660.44
2022-10-06T07:34:25.807Z,98677.94
2022-10-06T07:37:29.763Z,98675.97
2022-10-06T07:40:35.046Z,98670.34
2022-10-06T07:43:38.220Z,98680.13
2022-10-06T07:46:42.547Z,98674.69
2022-10-06T07:49:51.001Z,98670.56
2022-10-06T07:52:54.153Z,98647.13
2022-10-06T07:56:05.413Z,98632.47
2022-10-06T07:59:11.855Z,98622.56
2022-10-06T08:02:14.840Z,98614.00
2022-10-06T08:05:19.199Z,98610.19
2022-10-06T08:08:22.072Z,98604.75
2022-10-06T08:11:25.007Z,98591.38
2022-10-06T08:14:27.921Z,98584.25
2022-10-06T08:17:31.130Z,98574.19
2022-10-06T08:20:35.357Z,98578.16
2022-10-06T08:23:42.223Z,98571.91
2022-10-06T08:26:45.166Z,98572.22
2022-10-06T08:29:48.281Z,98571.59
2022-10-06T08:32:51.260Z,98573.91
2022-10-06T08:35:55.533Z,98580.50
2022-10-06T08:38:58.534Z,98577.53
2022-10-06T08:42:01.487Z,98590.06
2022-10-06T08:45:07.581Z,98594.72
2022-10-06T08:48:14.310Z,98589.44
2022-10-06T08:51:34.946Z,98583.81
2022-10-06T08:54:43.209Z,98582.81
2022-10-06T08:57:59.622Z,98580.84
2022-10-06T09:01:13.943Z,98589.09
2022-10-06T09:04:26.419Z,98580.84
2022-10-06T09:07:39.704Z,98580.31
2022-10-06T09:10:49.226Z,98583.44
2022-10-06T09:13:56.402Z,98586.38
2022-10-06T09:17:07.619Z,98573.09
2022-10-06T09:20:15.786Z,98575.19
2022-10-06T09:23:41.736Z,98572.81
2022-10-06T09:26:46.508Z,98573.97
2022-10-06T09:29:50.157Z,98570.81
2022-10-06T09:32:59.358Z,98573.16
2022-10-06T09:36:09.353Z,98575.91
2022-10-06T09:39:24.746Z,98585.03
2022-10-06T09:42:30.029Z,98595.06
2022-10-06T09:45:32.919Z,98603.13
2022-10-06T09:48:35.871Z,98608.59
2022-10-06T09:51:38.778Z,98628.75
2022-10-06T09:54:44.775Z,98647.72
2022-10-06T09:57:53.700Z,98652.50
2022-10-06T10:01:01.059Z,98654.97
2022-10-06T10:04:20.647Z,98657.03
2022-10-06T10:07:26.117Z,98659.03
2022-10-06T10:10:30.778Z,98673.38
2022-10-06T10:13:44.227Z,98677.81
2022-10-06T10:16:52.353Z,98690.75
2022-10-06T10:19:56.743Z,98689.03
2022-10-06T10:23:02.763Z,98697.66
2022-10-06T10:26:18.625Z,98707.56
2022-10-06T10:29:59.472Z,98687.50
2022-10-06T10:33:11.327Z,98693.69
2022-10-06T10:36:17.674Z,98697.78
2022-10-06T10:39:31.497Z,98699.44
2022-10-06T10:42:41.091Z,98716.34
2022-10-06T10:45:48.539Z,98732.63
2022-10-06T10:48:57.043Z,98733.47
2022-10-06T10:52:09.053Z,98733.19
2022-10-06T10:55:23.419Z,98733.03
2022-10-06T10:58:35.123Z,98736.00
2022-10-06T11:01:45.245Z,98738.22
2022-10-06T11:04:56.679Z,98736.47
2022-10-06T11:08:07.845Z,98740.78
2022-10-06T11:11:20.163Z,98750.47
2022-10-06T11:14:49.473Z,98752.13
2022-10-06T11:18:01.266Z,98756.00
2022-10-06T11:21:12.217Z,98750.59
2022-10-06T11:24:24.336Z,98754.97
2022-10-06T11:27:38.387Z,98752.22
2022-10-06T11:30:56.987Z,98748.50
2022-10-06T11:34:03.083Z,98751.53
2022-10-06T11:37:20.089Z,98765.03
2022-10-06T11:40:38.197Z,98758.88
2022-10-06T11:43:50.321Z,98769.34
2022-10-06T11:46:58.146Z,98760.41
2022-10-06T11:50:01.375Z,98755.22
2022-10-06T11:53:05.860Z,98754.09
2022-10-06T11:56:45.743Z,98758.75
2022-10-06T11:59:49.743Z,98762.06
2022-10-06T12:02:54.675Z,98754.78
2022-10-06T12:05:58.329Z,98754.78
2022-10-06T12:09:01.984Z,98758.34
2022-10-06T12:13:05.304Z,98758.09
2022-10-06T12:19:58.378Z,98757.09
2022-10-06T12:23:07.441Z,98745.44
2022-10-06T12:26:24.903Z,98734.81
2022-10-06T12:29:50.197Z,98749.47
2022-10-06T12:32:55.530Z,98753.69
2022-10-06T12:36:04.744Z,98751.69
2022-10-06T12:39:23.552Z,98751.06
2022-10-06T12:42:31.542Z,98746.09
2022-10-06T12:45:35.418Z,98743.94
2022-10-06T12:48:43.250Z,98732.50
2022-10-06T12:51:48.737Z,98738.56
2022-10-06T12:55:04.680Z,98741.03
2022-10-06T12:58:19.003Z,98736.66
2022-10-06T13:01:23.622Z,98741.50
2022-10-06T13:04:38.130Z,98737.38
2022-10-06T13:11:19.725Z,98737.31
2022-10-06T13:14:22.587Z,98736.50
2022-10-06T13:17:25.695Z,98735.66
2022-10-06T13:20:36.525Z,98733.88
2022-10-06T13:23:40.740Z,98743.66
2022-10-06T13:26:46.872Z,98738.63
2022-10-06T13:29:50.176Z,98741.63
2022-10-06T13:32:55.540Z,98742.56
2022-10-06T13:35:59.474Z,98738.03
2022-10-06T13:39:06.154Z,98741.34
2022-10-06T13:42:17.706Z,98736.13
2022-10-06T13:45:20.981Z,98734.41
2022-10-06T13:48:26.024Z,98737.97
2022-10-06T13:51:31.726Z,98741.19
2022-10-06T13:54:41.304Z,98746.59
2022-10-06T13:57:47.725Z,98750.53
2022-10-06T14:00:56.132Z,98746.50
2022-10-06T14:04:19.122Z,98742.66
2022-10-06T14:07:22.172Z,98744.75
2022-10-06T14:10:30.101Z,98742.66
2022-10-06T14:13:42.504Z,98754.75
2022-10-06T14:16:49.584Z,98751.47
2022-10-06T14:19:53.284Z,98744.50
2022-10-06T14:22:56.222Z,98732.75
2022-10-06T14:25:59.079Z,98738.97
2022-10-06T14:29:03.326Z,98739.28
2022-10-06T14:32:11.147Z,98744.38
2022-10-06T14:35:14.047Z,98744.69
2022-10-06T14:38:17.722Z,98743.91
2022-10-06T14:41:24.745Z,98733.50
2022-10-06T14:44:28.995Z,98740.81
2022-10-06T14:47:32.218Z,98737.88
2022-10-06T14:50:35.919Z,98747.78
2022-10-06T14:53:40.363Z,98755.53
2022-10-06T14:56:43.522Z,98761.88
2022-10-06T14:59:47.905Z,98753.63
2022-10-06T15:02:51.673Z,98754.81
2022-10-06T15:06:12.420Z,98740.88
2022-10-06T15:09:15.735Z,98741.25
2022-10-06T15:12:18.904Z,98750.78
2022-10-06T15:15:23.344Z,98740.47
2022-10-06T15:18:26.613Z,98747.53
2022-10-06T15:21:31.459Z,98747.88
2022-10-06T15:24:34.499Z,98742.78
2022-10-06T15:27:54.723Z,98743.31
2022-10-06T15:30:59.395Z,98740.97
2022-10-06T15:34:04.455Z,98745.38
2022-10-06T15:37:07.584Z,98738.41
2022-10-06T15:40:11.116Z,98739.13
2022-10-06T15:43:14.005Z,98737.84
2022-10-06T15:46:18.474Z,98737.09
2022-10-06T15:49:22.922Z,98736.47
2022-10-06T15:52:25.946Z,98727.50
2022-10-06T15:55:29.013Z,98739.88
2022-10-06T15:58:31.901Z,98738.13
2022-10-06T16:01:43.780Z,98739.88
2022-10-06T16:04:57.673Z,98719.59
2022-10-06T16:08:00.568Z,98712.09
2022-10-06T16:11:03.715Z,98706.22
2022-10-06T16:14:07.279Z,98702.97
2022-10-06T16:17:12.079Z,98696.50
2022-10-06T16:20:16.604Z,98699.16
2022-10-06T16:23:19.540Z,98701.41
2022-10-06T16:26:23.587Z,98699.63
2022-10-06T16:29:27.735Z,98693.19
2022-10-06T16:32:32.106Z,98698.91
2022-10-06T16:35:35.154Z,98700.97
2022-10-06T16:38:38.308Z,98701.78
2022-10-06T16:41:41.415Z,98693.06
2022-10-06T16:44:44.454Z,98701.06
2022-10-06T16:47:49.084Z,98696.06
2022-10-06T16:51:03.161Z,98696.00
2022-10-06T16:54:10.905Z,98689.50
2022-10-06T16:57:13.800Z,98698.81
2022-10-06T17:00:17.068Z,98700.81
2022-10-06T17:03:21.333Z,98703.50
2022-10-06T17:06:24.253Z,98704.16
2022-10-06T17:09:28.755Z,98705.50
2022-10-06T17:12:31.776Z,98705.81
2022-10-06T17:15:34.733Z,98711.72
2022-10-06T17:18:39.651Z,98710.38
2022-10-06T17:21:48.081Z,98708.16
2022-10-06T17:24:52.733Z,98702.81
2022-10-06T17:27:55.819Z,98701.84
2022-10-06T17:31:00.017Z,98693.53
2022-10-06T17:34:05.922Z,98690.22
2022-10-06T17:37:09.060Z,98691.63
2022-10-06T17:40:12.248Z,98689.34
2022-10-06T17:43:15.103Z,98687.09
2022-10-06T17:46:20.638Z,98686.22
2022-10-06T17:49:26.318Z,98681.41
2022-10-06T17:52:29.218Z,98678.25
2022-10-06T17:55:32.293Z,98685.13
2022-10-06T17:58:36.345Z,98684.06
2022-10-06T18:01:39.650Z,98682.41
2022-10-06T18:04:44.113Z,98676.06
2022-10-06T18:07:46.951Z,98677.06
2022-10-06T18:11:09.780Z,98688.69
2022-10-06T18:14:14.403Z,98687.16
2022-10-06T18:17:18.375Z,98678.13
2022-10-06T18:20:22.813Z,98676.25
2022-10-06T18:23:25.852Z,98680.38
2022-10-06T18:26:28.894Z,98684.97
2022-10-06T18:29:34.845Z,98685.06
2022-10-06T18:34:46.828Z,98686.41
2022-10-06T18:36:18.135Z,98689.91
2022-10-06T18:39:21.305Z,98688.59
2022-10-06T18:42:24.791Z,98692.00
2022-10-06T18:45:45.277Z,98690.59
2022-10-06T18:48:58.597Z,98686.88
2022-10-06T18:52:03.257Z,98691.25
2022-10-06T18:55:07.000Z,98690.94
2022-10-06T18:58:10.163Z,98694.88
2022-10-06T19:01:13.657Z,98697.50
2022-10-06T19:04:18.559Z,98691.63
2022-10-06T19:07:22.828Z,98696.06
2022-10-06T19:10:25.985Z,98708.19
2022-10-06T19:13:28.873Z,98697.97
2022-10-06T19:16:31.935Z,98697.56
2022-10-06T19:19:35.052Z,98702.03
2022-10-06T19:22:39.505Z,98697.06
2022-10-06T19:25:43.261Z,98699.75
2022-10-06T19:28:46.758Z,98713.69
2022-10-06T19:31:50.066Z,98710.38
2022-10-06T19:34:54.900Z,98714.97
2022-10-06T19:37:59.957Z,98710.38
2022-10-06T19:41:17.372Z,98713.69
2022-10-06T19:44:20.342Z,98717.38
2022-10-06T19:47:23.382Z,98718.41
2022-10-06T19:50:26.341Z,98718.84
2022-10-06T19:53:30.705Z,98718.69
2022-10-06T19:56:33.597Z,98720.94
2022-10-06T19:59:36.936Z,98720.25
2022-10-06T20:02:42.388Z,98722.22
2022-10-06T20:05:45.934Z,98710.59
2022-10-06T20:08:51.779Z,98716.84
2022-10-06T20:11:54.783Z,98723.09
2022-10-06T20:14:58.171Z,98727.38
2022-10-06T20:18:01.942Z,98724.06
2022-10-06T20:21:04.991Z,98729.22
2022-10-06T20:24:13.538Z,98730.88
2022-10-06T20:27:16.473Z,98725.25
2022-10-06T20:30:19.618Z,98728.16
2022-10-06T20:33:22.753Z,98717.09
2022-10-06T20:36:26.029Z,98720.16
2022-10-06T20:39:49.286Z,98724.59
2022-10-06T20:42:54.828Z,98728.44
2022-10-06T20:45:57.850Z,98721.56
2022-10-06T20:49:03.461Z,98725.59
2022-10-06T20:52:06.811Z,98725.72
2022-10-06T20:55:11.228Z,98717.28
2022-10-06T20:58:14.283Z,98722.13
2022-10-06T21:01:17.735Z,98718.25
2022-10-06T21:04:21.967Z,98729.50
2022-10-06T21:07:25.077Z,98727.59
2022-10-06T21:10:29.465Z,98720.94
2022-10-06T21:13:33.041Z,98718.03
2022-10-06T21:16:37.045Z,98718.91
2022-10-06T21:19:40.087Z,98720.69
2022-10-06T21:22:43.121Z,98723.63
2022-10-06T21:25:47.520Z,98722.78
2022-10-06T21:28:52.585Z,98716.00
2022-10-06T21:31:55.711Z,98721.97
2022-10-06T21:34:59.630Z,98715.06
2022-10-06T21:38:03.767Z,98711.44
2022-10-06T21:41:29.500Z,98707.63
2022-10-06T21:44:32.641Z,98704.31
2022-10-06T21:47:35.773Z,98702.09
2022-10-06T21:50:38.771Z,98702.13
2022-10-06T21:53:42.382Z,98709.00
2022-10-06T21:56:47.309Z,98705.16
2022-10-06T21:59:50.308Z,98697.38
2022-10-06T22:02:53.514Z,98705.41
2022-10-06T22:05:56.824Z,98699.22
2022-10-06T22:09:00.553Z,98703.22
2022-10-06T22:12:05.422Z,98708.19
2022-10-06T22:15:08.843Z,98705.03
2022-10-06T22:18:11.893Z,98705.44
2022-10-06T22:21:16.827Z,98702.41
2022-10-06T22:24:21.502Z,98702.69
2022-10-06T22:27:25.932Z,98699.50
2022-10-06T22:30:29.023Z,98703.34
2022-10-06T22:33:32.185Z,98705.84
2022-10-06T22:36:36.146Z,98705.16
2022-10-06T22:39:39.335Z,98709.28
2022-10-06T22:42:43.779Z,98696.56
2022-10-06T22:45:46.844Z,98701.00
2022-10-06T22:48:49.873Z,98693.13
2022-10-06T22:51:52.909Z,98693.38
2022-10-06T22:54:55.897Z,98694.34
2022-10-06T22:58:00.316Z,98689.38
2022-10-06T23:01:10.525Z,98688.41
2022-10-06T23:04:13.736Z,98689.78
2022-10-06T23:07:16.850Z,98693.53
2022-10-06T23:10:20.442Z,98685.13
2022-10-06T23:13:24.814Z,98681.34
2022-10-06T23:16:27.941Z,98675.56
2022-10-06T23:19:31.033Z,98668.81
2022-10-06T23:22:34.227Z,98668.38
2022-10-06T23:25:40.254Z,98679.44
2022-10-06T23:28:44.863Z,98670.59
2022-10-06T23:31:47.994Z,98663.81
2022-10-06T23:34:51.079Z,98680.25
2022-10-06T23:37:54.064Z,98674.13
2022-10-06T23:40:57.255Z,98669.88
2022-10-06T23:44:01.839Z,98669.94
2022-10-06T23:47:05.278Z,98667.44
2022-10-06T23:50:09.067Z,98665.78
2022-10-06T23:53:12.060Z,98661.63
2022-10-06T23:56:15.395Z,98669.94
2022-10-06T23:59:19.963Z,98662.59
